Time;durP1;ratioP1;P1;durP2;ratioP2;P2;SDS_P1;SDS_P2;PMS_P1;PMS_P2;Temp;Humidity;BMP_temperature;BMP_pressure;BME280_temperature;BME280_humidity;BME280_pressure;Samples;Min_cycle;Max_cycle;Signal;HPM_P1;HPM_P2
2021/04/04 00:01:11;;;;;;;9.18;6.70;;;2.70;99.90;;;;;;5010073;28;20028;-73
2021/04/04 00:03:37;;;;;;;9.13;7.28;;;2.70;99.90;;;;;;5020245;28;20022;-74
2021/04/04 00:06:03;;;;;;;11.73;6.50;;;2.60;99.90;;;;;;5015301;28;20472;-74
2021/04/04 00:08:28;;;;;;;9.55;6.45;;;2.80;99.90;;;;;;5013162;28;20434;-74
2021/04/04 00:10:54;;;;;;;9.70;5.80;;;2.80;99.90;;;;;;5021268;28;20034;-74
2021/04/04 00:13:20;;;;;;;9.93;6.25;;;2.80;99.90;;;;;;5013030;28;20025;-74
2021/04/04 00:15:46;;;;;;;10.40;6.60;;;2.60;99.90;;;;;;5016000;28;20511;-73
2021/04/04 00:18:12;;;;;;;10.25;6.28;;;2.60;99.90;;;;;;5012937;28;20112;-74
2021/04/04 00:20:37;;;;;;;9.13;6.35;;;2.60;99.90;;;;;;5017245;28;20034;-74
2021/04/04 00:23:03;;;;;;;11.05;6.88;;;2.50;99.90;;;;;;5013026;28;20032;-74
2021/04/04 00:25:29;;;;;;;10.15;6.32;;;2.40;99.90;;;;;;5018655;28;20010;-74
2021/04/04 00:27:55;;;;;;;8.98;6.00;;;2.40;99.90;;;;;;5012922;28;20022;-73
2021/04/04 00:30:22;;;;;;;11.13;6.20;;;2.20;99.90;;;;;;5004777;28;20395;-73
2021/04/04 00:32:49;;;;;;;7.28;6.25;;;2.10;99.90;;;;;;5006583;28;20022;-74
2021/04/04 00:35:19;;;;;;;9.52;6.35;;;2.30;99.90;;;;;;5011296;28;20545;-74
2021/04/04 00:37:47;;;;;;;9.27;6.28;;;2.30;99.90;;;;;;5017359;28;20049;-73
2021/04/04 00:40:14;;;;;;;9.02;5.50;;;2.20;99.90;;;;;;5014872;28;20582;-73
2021/04/04 00:42:40;;;;;;;9.90;5.63;;;2.20;99.90;;;;;;5012692;28;20490;-74
2021/04/04 00:45:11;;;;;;;9.60;5.25;;;2.30;99.90;;;;;;5008879;28;20042;-74
2021/04/04 00:47:37;;;;;;;7.25;5.40;;;2.40;99.90;;;;;;5007724;28;20399;-74
2021/04/04 00:50:07;;;;;;;6.32;5.28;;;2.50;99.90;;;;;;5005786;28;20030;-73
2021/04/04 00:52:34;;;;;;;8.75;5.80;;;2.60;99.90;;;;;;5008450;28;20050;-74
2021/04/04 00:55:00;;;;;;;8.85;5.70;;;2.50;99.90;;;;;;5016745;28;20451;-73
2021/04/04 00:57:26;;;;;;;10.55;6.40;;;2.30;99.90;;;;;;5014059;28;20037;-73
2021/04/04 00:59:52;;;;;;;9.20;5.57;;;2.40;99.90;;;;;;5011082;28;20065;-73
2021/04/04 01:02:18;;;;;;;12.45;5.47;;;2.50;99.90;;;;;;5011183;28;20487;-73
2021/04/04 01:04:46;;;;;;;11.32;5.88;;;2.40;99.90;;;;;;5020350;28;20101;-74
2021/04/04 01:07:12;;;;;;;7.43;6.00;;;2.40;99.90;;;;;;5010785;28;20072;-73
2021/04/04 01:09:37;;;;;;;9.60;5.90;;;2.40;99.90;;;;;;5010926;28;20030;-74
2021/04/04 01:12:18;;;;;;;8.07;6.03;;;2.30;99.90;;;;;;5005435;28;20033;-73
2021/04/04 01:14:51;;;;;;;8.75;5.63;;;2.20;99.90;;;;;;5009591;28;20036;-74
2021/04/04 01:17:21;;;;;;;9.07;5.80;;;2.30;99.90;;;;;;5014423;28;20495;-73
2021/04/04 01:20:14;;;;;;;7.93;5.55;;;2.10;99.90;;;;;;5012011;28;20030;-74
2021/04/04 01:22:58;;;;;;;8.25;6.03;;;2.20;99.90;;;;;;5008562;28;20037;-74
2021/04/04 01:25:38;;;;;;;10.40;5.32;;;2.40;99.90;;;;;;5009231;28;20027;-74
2021/04/04 01:28:11;;;;;;;14.25;10.40;;;2.30;99.90;;;;;;5011970;28;20097;-74
2021/04/04 01:30:40;;;;;;;10.02;7.32;;;2.40;99.90;;;;;;5022123;28;20042;-74
2021/04/04 01:33:10;;;;;;;8.73;5.43;;;2.30;99.90;;;;;;5010707;28;20026;-73
2021/04/04 01:35:37;;;;;;;9.68;6.07;;;2.20;99.90;;;;;;5003033;28;20487;-73
2021/04/04 01:38:10;;;;;;;9.15;5.70;;;2.00;99.90;;;;;;5019304;28;20033;-73
2021/04/04 01:40:37;;;;;;;9.90;5.75;;;2.00;99.90;;;;;;5008664;28;20034;-73
2021/04/04 01:43:05;;;;;;;7.70;5.80;;;1.80;99.90;;;;;;5012066;28;20026;-73
2021/04/04 01:45:31;;;;;;;8.50;5.53;;;1.80;99.90;;;;;;5011378;28;20030;-73
2021/04/04 01:47:58;;;;;;;11.10;5.70;;;2.00;99.90;;;;;;5011840;28;20104;-73
2021/04/04 01:50:25;;;;;;;8.98;5.45;;;2.10;99.90;;;;;;5018712;28;20025;-74
2021/04/04 01:52:52;;;;;;;9.13;5.60;;;2.00;99.90;;;;;;5012784;28;20022;-73
2021/04/04 01:55:18;;;;;;;8.32;6.00;;;2.10;99.90;;;;;;5011388;28;20051;-73
2021/04/04 01:57:47;;;;;;;8.25;5.63;;;2.10;99.90;;;;;;5003806;28;20023;-74
2021/04/04 02:00:20;;;;;;;8.75;5.75;;;2.10;99.90;;;;;;5007758;28;20554;-74
2021/04/04 02:02:46;;;;;;;8.55;5.82;;;2.00;99.90;;;;;;5011587;28;20372;-73
2021/04/04 02:05:13;;;;;;;8.38;6.03;;;2.10;99.90;;;;;;5012316;28;20384;-74
2021/04/04 02:07:46;;;;;;;7.97;5.50;;;2.10;99.90;;;;;;5010217;28;20488;-73
2021/04/04 02:10:19;;;;;;;9.52;5.45;;;1.90;99.90;;;;;;5014610;28;20022;-72
2021/04/04 02:12:45;;;;;;;10.52;6.28;;;1.90;99.90;;;;;;5012634;28;20491;-73
2021/04/04 02:15:13;;;;;;;10.00;5.95;;;1.90;99.90;;;;;;5009969;28;20056;-73
2021/04/04 02:17:40;;;;;;;10.07;5.05;;;1.70;99.90;;;;;;5021089;28;20058;-74
2021/04/04 02:20:10;;;;;;;10.52;5.97;;;1.60;99.90;;;;;;5011484;28;20080;-73
2021/04/04 02:22:39;;;;;;;9.23;6.57;;;1.70;99.90;;;;;;5010237;28;20076;-73
2021/04/04 02:25:12;;;;;;;9.07;5.88;;;1.70;99.90;;;;;;5017704;28;20022;-73
2021/04/04 02:27:41;;;;;;;8.35;5.90;;;1.70;99.90;;;;;;5004220;28;20022;-73
2021/04/04 02:30:08;;;;;;;9.93;6.57;;;1.40;99.90;;;;;;5020789;28;20079;-73
2021/04/04 02:32:38;;;;;;;8.30;6.20;;;1.40;99.90;;;;;;5016909;28;20492;-73
2021/04/04 02:35:05;;;;;;;10.55;7.10;;;1.50;99.90;;;;;;5014862;28;20112;-73
2021/04/04 02:37:31;;;;;;;10.05;6.35;;;1.60;99.90;;;;;;5013129;28;20026;-73
2021/04/04 02:40:02;;;;;;;11.18;8.30;;;1.70;99.90;;;;;;5011615;28;20026;-72
2021/04/04 02:42:28;;;;;;;8.52;7.03;;;1.70;99.90;;;;;;5014634;28;20032;-73
2021/04/04 02:44:56;;;;;;;9.60;6.65;;;1.60;99.90;;;;;;5022065;28;20042;-73
2021/04/04 02:47:50;;;;;;;10.27;7.00;;;1.70;99.90;;;;;;5016199;28;20053;-73
2021/04/04 02:50:17;;;;;;;8.82;7.45;;;1.50;99.90;;;;;;5018841;28;20112;-73
2021/04/04 02:52:44;;;;;;;10.07;9.07;;;1.30;99.90;;;;;;5017148;28;20117;-73
2021/04/04 02:55:12;;;;;;;10.80;7.07;;;1.20;99.90;;;;;;5014288;28;20056;-72
2021/04/04 02:57:39;;;;;;;12.60;8.55;;;1.20;99.90;;;;;;5017135;28;20037;-73
2021/04/04 03:00:07;;;;;;;10.57;6.78;;;1.10;99.90;;;;;;5015386;28;20018;-72
2021/04/04 03:02:36;;;;;;;7.55;6.43;;;1.10;99.90;;;;;;5009658;28;20022;-73
2021/04/04 03:05:06;;;;;;;9.73;8.80;;;1.10;99.90;;;;;;5004320;28;20027;-74
2021/04/04 03:07:32;;;;;;;10.77;7.05;;;1.00;99.90;;;;;;5020916;28;20067;-74
2021/04/04 03:09:59;;;;;;;8.57;6.88;;;0.90;99.90;;;;;;4994812;28;20473;-75
2021/04/04 03:12:27;;;;;;;7.45;6.72;;;0.90;99.90;;;;;;5012290;28;20022;-73
2021/04/04 03:14:57;;;;;;;10.15;8.95;;;1.00;99.90;;;;;;5014055;28;20026;-73
2021/04/04 03:17:25;;;;;;;10.27;9.38;;;1.00;99.90;;;;;;5022363;28;20057;-73
2021/04/04 03:19:52;;;;;;;10.07;8.77;;;1.00;99.90;;;;;;5005180;28;20034;-74
2021/04/04 03:22:20;;;;;;;8.82;7.30;;;1.00;99.90;;;;;;5021893;28;20485;-73
2021/04/04 03:24:47;;;;;;;8.20;6.75;;;0.80;99.90;;;;;;4996822;28;20073;-72
2021/04/04 03:27:13;;;;;;;9.57;7.35;;;0.80;99.90;;;;;;5013982;28;20050;-73
2021/04/04 03:29:40;;;;;;;10.43;8.05;;;0.70;99.90;;;;;;5014096;28;20021;-73
2021/04/04 03:32:07;;;;;;;10.77;8.02;;;0.80;99.90;;;;;;5012820;28;20050;-73
2021/04/04 03:34:34;;;;;;;10.73;9.27;;;1.00;99.90;;;;;;5013662;28;20104;-72
2021/04/04 03:37:00;;;;;;;10.07;8.10;;;0.90;99.90;;;;;;5019597;28;20030;-73
2021/04/04 03:39:26;;;;;;;9.95;8.38;;;0.70;99.90;;;;;;4994338;28;20036;-73
2021/04/04 03:41:53;;;;;;;11.88;10.77;;;0.40;99.90;;;;;;5012289;28;20044;-73
2021/04/04 03:44:21;;;;;;;10.57;8.10;;;0.50;99.90;;;;;;5012208;28;20030;-72
2021/04/04 03:46:47;;;;;;;12.40;8.05;;;0.70;99.90;;;;;;5013616;28;20053;-72
2021/04/04 03:49:14;;;;;;;10.35;9.38;;;0.80;99.90;;;;;;5013186;28;20022;-72
2021/04/04 03:51:40;;;;;;;12.63;11.43;;;0.80;99.90;;;;;;5020375;28;20035;-74
2021/04/04 03:54:12;;;;;;;13.85;11.77;;;0.90;99.90;;;;;;5006419;28;20022;-71
2021/04/04 03:56:41;;;;;;;11.90;10.77;;;0.90;99.90;;;;;;5012118;28;20033;-72
2021/04/04 03:59:08;;;;;;;10.82;9.05;;;0.90;99.90;;;;;;5011582;28;20049;-75
2021/04/04 04:01:37;;;;;;;11.73;10.52;;;0.70;99.90;;;;;;5002447;28;20030;-74
2021/04/04 04:04:05;;;;;;;13.57;12.27;;;0.80;99.90;;;;;;5026253;28;20029;-74
2021/04/04 04:06:33;;;;;;;19.98;16.27;;;0.90;99.90;;;;;;5012108;28;20030;-74
2021/04/04 04:09:03;;;;;;;26.42;21.60;;;1.00;99.90;;;;;;5000109;28;20054;-72
2021/04/04 04:11:29;;;;;;;15.35;11.45;;;0.70;99.90;;;;;;5013150;28;20057;-74
2021/04/04 04:13:55;;;;;;;14.18;12.88;;;0.60;99.90;;;;;;4998459;28;20673;-73
2021/04/04 04:16:22;;;;;;;13.45;12.05;;;0.50;99.90;;;;;;5021540;28;20078;-72
2021/04/04 04:18:48;;;;;;;12.32;11.30;;;0.40;99.90;;;;;;5016655;28;20072;-72
2021/04/04 04:21:14;;;;;;;14.00;12.80;;;-0.30;99.90;;;;;;5003816;28;20058;-74
2021/04/04 04:23:41;;;;;;;12.52;11.43;;;-0.40;99.90;;;;;;5006404;28;20656;-74
2021/04/04 04:26:11;;;;;;;12.50;11.32;;;-0.10;99.90;;;;;;4993457;28;20101;-75
2021/04/04 04:28:38;;;;;;;11.40;9.52;;;0.00;99.90;;;;;;5015030;28;20159;-72
2021/04/04 04:31:09;;;;;;;10.60;9.43;;;-0.30;99.90;;;;;;5022135;28;20029;-73
2021/04/04 04:33:35;;;;;;;10.73;9.40;;;-0.10;99.90;;;;;;4997989;28;20026;-73
2021/04/04 04:36:01;;;;;;;12.88;11.57;;;0.00;99.90;;;;;;5024365;28;20039;-74
2021/04/04 04:38:28;;;;;;;14.00;12.75;;;0.10;99.90;;;;;;5019243;28;20520;-73
2021/04/04 04:40:56;;;;;;;12.02;10.93;;;-0.30;99.90;;;;;;5009923;28;20113;-73
2021/04/04 04:43:23;;;;;;;10.38;9.35;;;-0.20;99.90;;;;;;5014656;28;20048;-73
2021/04/04 04:45:51;;;;;;;14.38;12.93;;;-0.20;99.90;;;;;;5007630;28;20026;-71
2021/04/04 04:48:16;;;;;;;15.60;14.30;;;-0.10;99.90;;;;;;5019208;28;20057;-72
2021/04/04 04:50:42;;;;;;;16.05;14.35;;;0.00;99.90;;;;;;5004786;28;20053;-72
2021/04/04 04:53:08;;;;;;;24.70;23.08;;;-0.30;99.90;;;;;;5007427;28;20472;-74
2021/04/04 04:55:36;;;;;;;11.02;9.75;;;-0.20;99.90;;;;;;5004433;28;20030;-73
2021/04/04 04:58:03;;;;;;;20.63;19.23;;;-0.20;99.90;;;;;;4999269;28;20022;-73
2021/04/04 05:00:30;;;;;;;14.35;12.90;;;-0.40;99.90;;;;;;5000404;28;20089;-75
2021/04/04 05:02:56;;;;;;;12.88;11.82;;;-0.50;99.90;;;;;;5005934;28;20389;-72
2021/04/04 05:05:22;;;;;;;9.73;6.95;;;-0.30;99.90;;;;;;5003182;28;20028;-72
2021/04/04 05:07:47;;;;;;;11.45;10.15;;;-0.20;99.90;;;;;;5003363;28;20025;-71
2021/04/04 05:10:14;;;;;;;14.55;10.85;;;0.00;99.90;;;;;;5018683;28;20420;-72
2021/04/04 05:13:02;;;;;;;13.13;11.85;;;0.20;99.90;;;;;;5012158;28;20038;-72
2021/04/04 05:15:28;;;;;;;20.10;13.13;;;0.20;99.90;;;;;;5011717;28;20021;-71
2021/04/04 05:17:54;;;;;;;12.68;11.38;;;0.30;99.90;;;;;;5003655;28;20026;-72
2021/04/04 05:20:20;;;;;;;14.32;12.73;;;0.10;99.90;;;;;;5009795;28;20033;-71
2021/04/04 05:22:46;;;;;;;12.68;10.85;;;0.20;99.90;;;;;;5023010;28;20109;-72
2021/04/04 05:25:13;;;;;;;10.93;9.82;;;0.20;99.90;;;;;;4998915;28;20507;-72
2021/04/04 05:27:39;;;;;;;15.38;14.15;;;0.30;99.90;;;;;;5002893;28;20026;-72
2021/04/04 05:30:11;;;;;;;14.77;13.57;;;0.40;99.90;;;;;;5018733;28;20438;-72
2021/04/04 05:32:47;;;;;;;14.70;13.45;;;0.30;99.90;;;;;;4992487;28;20037;-72
2021/04/04 05:35:14;;;;;;;11.02;9.93;;;0.40;99.90;;;;;;5013354;28;20022;-72
2021/04/04 05:37:43;;;;;;;13.48;12.23;;;0.60;99.90;;;;;;5020416;28;20038;-71
2021/04/04 05:40:25;;;;;;;13.00;11.90;;;0.80;99.90;;;;;;5018561;28;20400;-72
2021/04/04 05:43:15;;;;;;;17.77;16.55;;;0.80;99.90;;;;;;5005878;28;20504;-72
2021/04/04 05:45:50;;;;;;;15.57;14.00;;;0.80;99.90;;;;;;5000652;28;20053;-72
2021/04/04 05:48:40;;;;;;;29.58;24.70;;;0.80;99.90;;;;;;5010434;28;20061;-72
2021/04/04 05:51:40;;;;;;;18.85;17.15;;;0.50;99.90;;;;;;5009276;28;20030;-72
2021/04/04 05:54:28;;;;;;;15.63;13.52;;;0.30;99.90;;;;;;5017170;28;20031;-72
2021/04/04 05:56:58;;;;;;;13.55;10.40;;;0.30;99.90;;;;;;5009282;28;20522;-72
2021/04/04 05:59:33;;;;;;;15.77;13.07;;;0.30;99.90;;;;;;5011418;28;20033;-73
2021/04/04 06:02:02;;;;;;;10.55;8.50;;;0.60;99.90;;;;;;4992236;28;20026;-73
2021/04/04 06:04:52;;;;;;;15.70;14.50;;;0.30;99.90;;;;;;5005497;28;20023;-71
2021/04/04 06:07:52;;;;;;;12.50;10.25;;;0.60;99.90;;;;;;5005460;28;20110;-72
2021/04/04 06:10:55;;;;;;;14.15;12.90;;;0.60;99.90;;;;;;5003229;28;20033;-72
2021/04/04 06:13:58;;;;;;;16.35;14.93;;;0.60;99.90;;;;;;5005236;28;20751;-75
2021/04/04 06:17:05;;;;;;;86.13;65.38;;;0.80;99.90;;;;;;5001596;28;20097;-72
2021/04/04 06:19:43;;;;;;;22.60;16.60;;;1.00;99.90;;;;;;5010637;28;20065;-72
2021/04/04 06:22:31;;;;;;;21.08;17.90;;;1.10;99.90;;;;;;5014018;28;20040;-72
2021/04/04 06:25:08;;;;;;;39.13;32.28;;;1.20;99.90;;;;;;5011542;28;20018;-73
2021/04/04 06:28:05;;;;;;;28.80;25.73;;;1.40;99.90;;;;;;5026241;28;20391;-71
2021/04/04 06:31:01;;;;;;;15.30;12.25;;;1.60;99.90;;;;;;5003719;28;20030;-72
2021/04/04 06:33:28;;;;;;;17.95;15.95;;;1.40;99.90;;;;;;5030986;28;20108;-72
2021/04/04 06:36:19;;;;;;;43.00;35.67;;;1.70;99.90;;;;;;5014727;28;20022;-71
2021/04/04 06:39:17;;;;;;;25.08;22.42;;;1.80;99.90;;;;;;4995637;28;20022;-73
2021/04/04 06:41:59;;;;;;;21.20;18.98;;;1.90;99.90;;;;;;5011548;28;20091;-72
2021/04/04 06:44:41;;;;;;;24.38;19.73;;;2.20;99.90;;;;;;5014326;28;20037;-73
2021/04/04 06:47:33;;;;;;;22.25;20.42;;;2.30;99.90;;;;;;5013518;28;20024;-73
2021/04/04 06:50:23;;;;;;;9.80;8.82;;;2.60;99.90;;;;;;5022091;28;20019;-73
2021/04/04 06:52:55;;;;;;;9.48;6.07;;;2.70;99.90;;;;;;5013165;28;20057;-72
2021/04/04 06:55:43;;;;;;;8.43;5.75;;;2.80;99.90;;;;;;5024950;28;20045;-73
2021/04/04 06:58:33;;;;;;;7.15;4.80;;;2.70;99.90;;;;;;5007803;28;20032;-72
2021/04/04 07:01:35;;;;;;;7.75;4.82;;;2.70;99.90;;;;;;5002411;28;20467;-73
2021/04/04 07:04:30;;;;;;;9.55;4.93;;;2.90;99.90;;;;;;5021377;28;20431;-72
2021/04/04 07:07:16;;;;;;;11.18;8.10;;;2.80;99.90;;;;;;4976903;28;20034;-72
2021/04/04 07:10:03;;;;;;;;;;;2.80;99.90;;;;;;4998632;28;20022;-73
2021/04/04 07:13:09;;;;;;;5.78;4.00;;;3.10;99.90;;;;;;5007991;28;19906;-72
2021/04/04 07:16:15;;;;;;;7.80;4.30;;;3.10;99.90;;;;;;5013729;28;20040;-72
2021/04/04 07:19:01;;;;;;;6.80;4.85;;;3.10;99.90;;;;;;5017796;28;20029;-73
2021/04/04 07:21:33;;;;;;;9.77;7.57;;;3.10;99.90;;;;;;5003790;28;20030;-72
2021/04/04 07:24:48;;;;;;;7.63;5.07;;;3.10;99.90;;;;;;5011609;28;20030;-73
2021/04/04 07:27:41;;;;;;;7.03;4.35;;;3.30;99.90;;;;;;4920768;29;20517;-72
2021/04/04 07:30:30;;;;;;;9.18;5.00;;;3.50;99.90;;;;;;5006865;28;20576;-72
2021/04/04 07:33:34;;;;;;;5.40;4.10;;;3.60;99.90;;;;;;5019775;28;20059;-72
2021/04/04 07:36:15;;;;;;;5.93;4.57;;;3.70;99.90;;;;;;5005401;28;20030;-72
2021/04/04 07:39:04;;;;;;;9.65;5.03;;;3.80;99.90;;;;;;5005755;28;20105;-72
2021/04/04 07:41:54;;;;;;;8.15;5.32;;;4.00;99.90;;;;;;5023666;28;20034;-72
2021/04/04 07:44:30;;;;;;;7.72;5.18;;;4.00;99.90;;;;;;5013120;28;20109;-71
2021/04/04 07:47:10;;;;;;;;;;;4.00;99.90;;;;;;5001922;28;20510;-72
2021/04/04 07:49:44;;;;;;;6.50;4.40;;;4.20;99.90;;;;;;5022204;28;19913;-71
2021/04/04 07:52:23;;;;;;;6.90;4.25;;;4.40;99.90;;;;;;5004505;28;20412;-71
2021/04/04 07:55:12;;;;;;;7.25;5.10;;;4.50;99.90;;;;;;5011975;28;20028;-72
2021/04/04 07:57:50;;;;;;;6.63;4.70;;;4.50;99.90;;;;;;5014213;28;20021;-70
2021/04/04 08:00:18;;;;;;;7.07;4.57;;;4.70;99.90;;;;;;5022854;28;20030;-72
2021/04/04 08:02:54;;;;;;;9.63;5.57;;;4.60;99.90;;;;;;4996356;28;20089;-73
2021/04/04 08:05:27;;;;;;;8.27;5.82;;;4.80;99.90;;;;;;5016776;28;20060;-71
2021/04/04 08:08:08;;;;;;;8.50;5.70;;;4.90;99.90;;;;;;4993948;28;20028;-73
2021/04/04 08:10:36;;;;;;;8.82;5.47;;;5.10;99.90;;;;;;4993506;28;20077;-72
2021/04/04 08:13:20;;;;;;;7.40;5.53;;;5.10;99.90;;;;;;5009894;28;20045;-72
2021/04/04 08:16:07;;;;;;;6.88;5.20;;;5.10;99.90;;;;;;5015330;28;20056;-73
2021/04/04 08:18:33;;;;;;;8.73;6.03;;;5.30;99.90;;;;;;5017874;28;20079;-72
2021/04/04 08:21:03;;;;;;;6.70;5.25;;;5.40;99.90;;;;;;5012781;28;20022;-72
2021/04/04 08:23:32;;;;;;;6.95;5.20;;;5.50;99.90;;;;;;4999494;28;20396;-70
2021/04/04 08:26:02;;;;;;;6.93;5.32;;;5.50;99.90;;;;;;5012850;28;20038;-70
2021/04/04 08:29:01;;;;;;;6.25;4.30;;;5.60;99.90;;;;;;5011564;28;20022;-72
2021/04/04 08:31:38;;;;;;;6.45;3.70;;;5.70;99.90;;;;;;5024741;28;20028;-71
2021/04/04 08:34:21;;;;;;;6.10;4.43;;;5.80;99.90;;;;;;5020474;28;20021;-72
2021/04/04 08:36:57;;;;;;;8.13;3.88;;;5.80;99.90;;;;;;4998577;28;20056;-71
2021/04/04 08:39:24;;;;;;;;;;;5.90;99.90;;;;;;4993335;28;20046;-75
2021/04/04 08:41:50;;;;;;;7.30;4.70;;;6.10;99.90;;;;;;4997091;28;19991;-73
2021/04/04 08:44:25;;;;;;;7.38;4.25;;;6.10;99.90;;;;;;4999853;28;20090;-71
2021/04/04 08:47:00;;;;;;;5.32;3.58;;;6.40;99.90;;;;;;4999406;28;20113;-71
2021/04/04 08:49:26;;;;;;;4.72;3.42;;;6.30;99.90;;;;;;4999338;28;20603;-70
2021/04/04 08:52:06;;;;;;;4.90;3.35;;;6.30;99.90;;;;;;5008684;23;20039;-72
2021/04/04 08:54:34;;;;;;;6.25;3.22;;;6.30;99.90;;;;;;4983763;28;20053;-72
2021/04/04 08:57:00;;;;;;;5.97;3.30;;;6.40;99.90;;;;;;4984632;28;20395;-71
2021/04/04 08:59:31;;;;;;;3.95;3.33;;;6.50;99.90;;;;;;4984434;28;20058;-72
2021/04/04 09:02:07;;;;;;;6.80;3.30;;;6.90;99.90;;;;;;4981845;28;20101;-72
2021/04/04 09:04:40;;;;;;;7.30;4.35;;;7.00;99.90;;;;;;4973143;28;20023;-72
2021/04/04 09:07:06;;;;;;;4.90;3.90;;;6.90;99.90;;;;;;4986209;28;20161;-75
2021/04/04 09:09:47;;;;;;;5.97;4.50;;;7.00;99.90;;;;;;4976884;28;20023;-72
2021/04/04 09:12:14;;;;;;;7.38;4.20;;;7.10;99.90;;;;;;4988180;28;20034;-72
2021/04/04 09:14:42;;;;;;;6.32;4.03;;;7.10;99.90;;;;;;4984188;28;20063;-72
2021/04/04 09:17:13;;;;;;;6.55;3.80;;;7.10;99.90;;;;;;4973150;28;20109;-71
2021/04/04 09:19:41;;;;;;;6.28;4.10;;;7.20;99.90;;;;;;4982721;28;20031;-72
2021/04/04 09:22:20;;;;;;;7.40;4.25;;;7.40;99.90;;;;;;4992207;28;20027;-72
2021/04/04 09:24:59;;;;;;;4.95;4.00;;;7.40;99.90;;;;;;4980667;28;20027;-72
2021/04/04 09:27:33;;;;;;;5.18;3.65;;;7.50;99.90;;;;;;4980174;28;20026;-72
2021/04/04 09:30:01;;;;;;;8.60;4.38;;;7.60;99.90;;;;;;4990782;28;20030;-71
2021/04/04 09:32:46;;;;;;;5.82;4.07;;;7.70;99.90;;;;;;4971575;28;20492;-71
2021/04/04 09:35:16;;;;;;;10.55;5.18;;;7.90;99.90;;;;;;4988741;28;20116;-71
2021/04/04 09:37:44;;;;;;;8.57;4.57;;;8.00;99.90;;;;;;4981033;28;20018;-72
2021/04/04 09:40:10;;;;;;;7.88;4.60;;;8.20;99.90;;;;;;4984778;28;20038;-72
2021/04/04 09:42:36;;;;;;;6.10;4.43;;;8.20;99.90;;;;;;4984708;28;20027;-72
2021/04/04 09:45:24;;;;;;;8.05;4.68;;;8.10;99.90;;;;;;4979103;28;20030;-72
2021/04/04 09:47:52;;;;;;;9.43;4.72;;;8.20;99.90;;;;;;4982221;28;20483;-72
2021/04/04 09:50:22;;;;;;;7.35;4.78;;;8.40;99.90;;;;;;4987978;28;20019;-72
2021/04/04 09:52:48;;;;;;;8.48;4.68;;;8.40;99.90;;;;;;4989812;28;20026;-71
2021/04/04 09:55:19;;;;;;;8.35;4.32;;;8.40;99.90;;;;;;4984042;28;20536;-72
2021/04/04 09:57:50;;;;;;;7.47;4.90;;;8.40;99.90;;;;;;4980224;28;20102;-71
2021/04/04 10:00:28;;;;;;;9.55;5.38;;;8.60;99.90;;;;;;4987114;28;20033;-72
2021/04/04 10:02:56;;;;;;;8.73;5.63;;;8.90;99.90;;;;;;4981440;28;20030;-72
2021/04/04 10:05:40;;;;;;;8.80;5.57;;;8.80;99.90;;;;;;4982601;28;20019;-72
2021/04/04 10:08:17;;;;;;;9.57;4.90;;;8.90;99.90;;;;;;4976730;28;20030;-72
2021/04/04 10:10:56;;;;;;;9.20;5.25;;;8.80;99.90;;;;;;4989674;28;20030;-72
2021/04/04 10:13:28;;;;;;;11.95;6.50;;;8.70;99.90;;;;;;4976491;28;20015;-72
2021/04/04 10:15:54;;;;;;;11.35;5.97;;;8.60;99.90;;;;;;4981715;28;20117;-72
2021/04/04 10:18:23;;;;;;;11.52;5.40;;;8.60;99.90;;;;;;4983794;28;20018;-72
2021/04/04 10:20:55;;;;;;;13.00;4.88;;;8.80;99.90;;;;;;4989437;28;20134;-71
2021/04/04 10:23:28;;;;;;;11.45;5.25;;;8.80;99.90;;;;;;4987629;28;20396;-72
2021/04/04 10:26:04;;;;;;;11.45;5.97;;;9.20;99.90;;;;;;4995874;28;20022;-74
2021/04/04 10:28:52;;;;;;;8.80;5.20;;;9.40;99.90;;;;;;4982994;28;20172;-71
2021/04/04 10:31:19;;;;;;;11.23;5.75;;;9.10;99.90;;;;;;4995513;28;20442;-71
2021/04/04 10:33:45;;;;;;;7.95;5.18;;;9.10;99.90;;;;;;4982491;28;20476;-72
2021/04/04 10:36:15;;;;;;;11.45;5.55;;;9.30;99.90;;;;;;4983545;28;20027;-72
2021/04/04 10:38:40;;;;;;;10.50;5.72;;;9.40;99.40;;;;;;4989262;28;20027;-72
2021/04/04 10:41:06;;;;;;;9.57;5.25;;;9.60;99.90;;;;;;4989155;28;20106;-72
2021/04/04 10:43:45;;;;;;;9.68;5.60;;;9.80;99.90;;;;;;4974680;28;20023;-72
2021/04/04 10:46:13;;;;;;;7.95;4.78;;;9.90;99.90;;;;;;4989220;28;20018;-71
2021/04/04 10:48:44;;;;;;;11.05;5.07;;;9.90;99.90;;;;;;4975958;28;20107;-72
2021/04/04 10:51:11;;;;;;;7.63;5.30;;;10.30;99.90;;;;;;4988694;28;20085;-73
2021/04/04 10:53:38;;;;;;;8.82;5.15;;;10.40;99.40;;;;;;4983677;28;20514;-72
2021/04/04 10:56:05;;;;;;;7.88;5.20;;;10.40;99.90;;;;;;4982205;28;20431;-72
2021/04/04 10:58:31;;;;;;;6.57;4.97;;;10.10;98.80;;;;;;4985636;28;20523;-72
2021/04/04 11:00:58;;;;;;;7.32;5.40;;;10.10;99.40;;;;;;4990531;28;20038;-72
2021/04/04 11:03:25;;;;;;;8.32;5.10;;;10.10;99.90;;;;;;4985361;28;20393;-72
2021/04/04 11:05:51;;;;;;;13.43;5.72;;;10.10;99.90;;;;;;4988732;28;20385;-72
2021/04/04 11:08:17;;;;;;;9.80;5.35;;;10.00;99.10;;;;;;4985661;28;20476;-72
2021/04/04 11:10:44;;;;;;;11.52;5.45;;;9.80;97.70;;;;;;4982125;28;20053;-73
2021/04/04 11:13:13;;;;;;;9.38;5.65;;;10.20;99.90;;;;;;4984663;28;20054;-72
2021/04/04 11:15:42;;;;;;;9.73;5.35;;;10.30;98.30;;;;;;4992648;28;20049;-72
2021/04/04 11:18:39;;;;;;;11.50;5.70;;;10.90;99.20;;;;;;4984113;28;20031;-72
2021/04/04 11:21:12;;;;;;;11.63;5.82;;;10.70;99.60;;;;;;4983214;28;20484;-72
2021/04/04 11:23:38;;;;;;;9.82;5.57;;;11.70;99.90;;;;;;4991344;28;20049;-72
2021/04/04 11:26:32;;;;;;;10.02;5.88;;;11.50;99.90;;;;;;4983748;28;20019;-72
2021/04/04 11:29:11;;;;;;;12.70;6.70;;;11.50;99.90;;;;;;4982281;28;20038;-72
2021/04/04 11:31:42;;;;;;;10.05;6.32;;;11.20;97.00;;;;;;4981141;28;20042;-72
2021/04/04 11:34:30;;;;;;;10.68;6.35;;;10.80;97.40;;;;;;4985557;28;20035;-72
2021/04/04 11:37:17;;;;;;;9.48;5.47;;;10.50;98.80;;;;;;4988068;28;20026;-72
2021/04/04 11:40:25;;;;;;;9.20;5.28;;;10.50;97.40;;;;;;4977425;28;20042;-72
2021/04/04 11:43:12;;;;;;;8.60;5.53;;;10.10;98.90;;;;;;4989035;28;20023;-72
2021/04/04 11:45:39;;;;;;;12.30;6.43;;;10.60;98.30;;;;;;4994072;28;20543;-72
2021/04/04 11:48:27;;;;;;;11.02;6.28;;;11.10;99.40;;;;;;4976275;28;20026;-72
2021/04/04 11:50:52;;;;;;;14.38;6.05;;;11.20;96.60;;;;;;4973851;28;20484;-72
2021/04/04 11:53:47;;;;;;;11.45;6.18;;;11.20;95.00;;;;;;4993962;28;20038;-72
2021/04/04 11:56:41;;;;;;;11.75;7.10;;;11.60;98.30;;;;;;4979987;28;20029;-72
2021/04/04 11:59:06;;;;;;;9.52;6.40;;;11.70;94.80;;;;;;4980997;28;20030;-73
2021/04/04 12:01:32;;;;;;;10.07;6.30;;;12.40;99.50;;;;;;4985838;28;20441;-72
2021/04/04 12:04:18;;;;;;;11.02;6.10;;;13.20;98.00;;;;;;4975845;28;20030;-73
2021/04/04 12:06:44;;;;;;;11.27;6.13;;;12.60;94.60;;;;;;4983532;28;20093;-73
2021/04/04 12:09:10;;;;;;;9.45;5.43;;;13.20;94.90;;;;;;4987055;28;20638;-72
2021/04/04 12:11:35;;;;;;;11.80;6.93;;;13.30;91.50;;;;;;4984760;28;20053;-73
2021/04/04 12:14:01;;;;;;;11.70;6.90;;;13.50;94.30;;;;;;4977192;28;20062;-72
2021/04/04 12:16:27;;;;;;;10.27;6.13;;;13.60;92.10;;;;;;4984755;28;20080;-72
2021/04/04 12:19:00;;;;;;;12.20;6.25;;;13.90;91.20;;;;;;4977631;28;20366;-73
2021/04/04 12:21:25;;;;;;;10.13;5.82;;;14.60;90.40;;;;;;4983988;28;20061;-73
2021/04/04 12:23:54;;;;;;;12.98;6.25;;;14.70;89.30;;;;;;4989832;28;20110;-73
2021/04/04 12:26:19;;;;;;;11.93;6.50;;;14.50;85.70;;;;;;4974474;28;20023;-73
2021/04/04 12:28:45;;;;;;;8.32;5.82;;;14.50;85.80;;;;;;4987749;28;20073;-73
2021/04/04 12:31:11;;;;;;;11.40;6.65;;;14.60;88.10;;;;;;4985911;28;20034;-73
2021/04/04 12:33:38;;;;;;;9.20;6.07;;;14.60;84.80;;;;;;4980600;28;20026;-73
2021/04/04 12:36:04;;;;;;;10.98;6.28;;;15.70;81.50;;;;;;4981945;28;20059;-73
2021/04/04 12:38:32;;;;;;;10.45;6.05;;;15.30;86.30;;;;;;4987470;28;20022;-73
2021/04/04 12:40:59;;;;;;;11.10;5.97;;;16.20;80.10;;;;;;4984579;28;20030;-73
2021/04/04 12:43:25;;;;;;;10.07;6.07;;;15.10;80.00;;;;;;4987955;28;20447;-73
2021/04/04 12:45:51;;;;;;;11.77;6.30;;;16.00;85.00;;;;;;4984895;28;20022;-73
2021/04/04 12:48:19;;;;;;;10.18;6.22;;;15.20;82.10;;;;;;4979247;28;20034;-73
2021/04/04 12:50:48;;;;;;;10.50;6.53;;;15.10;82.00;;;;;;4981250;28;20057;-73
2021/04/04 12:53:41;;;;;;;10.10;6.00;;;15.50;78.70;;;;;;4992905;28;20026;-73
2021/04/04 12:56:07;;;;;;;9.73;6.50;;;15.70;81.20;;;;;;4974311;28;20456;-73
2021/04/04 12:58:37;;;;;;;9.75;6.10;;;15.80;77.10;;;;;;4983250;28;20458;-73
2021/04/04 13:01:04;;;;;;;10.95;5.40;;;15.70;77.80;;;;;;4979945;28;20539;-73
2021/04/04 13:03:35;;;;;;;9.23;5.75;;;14.30;76.00;;;;;;4982755;28;20519;-73
2021/04/04 13:06:01;;;;;;;9.98;5.43;;;15.10;77.10;;;;;;4986682;28;20031;-73
2021/04/04 13:08:32;;;;;;;8.60;6.18;;;15.60;72.90;;;;;;4973673;28;20044;-73
2021/04/04 13:11:07;;;;;;;11.98;6.40;;;15.50;73.80;;;;;;4985133;28;20061;-73
2021/04/04 13:13:35;;;;;;;10.27;6.47;;;16.20;75.30;;;;;;4984971;28;20027;-73
2021/04/04 13:16:06;;;;;;;9.75;5.95;;;15.70;72.70;;;;;;4978821;28;20270;-73
2021/04/04 13:18:37;;;;;;;10.27;6.65;;;15.60;74.60;;;;;;4992354;28;20532;-74